createdAt,value
2023-01-09T00:02:05.313Z,8.20
2023-01-09T00:04:32.247Z,8.20
2023-01-09T00:06:59.214Z,8.20
2023-01-09T00:09:26.413Z,8.20
2023-01-09T00:11:55.143Z,8.30
2023-01-09T00:14:23.922Z,8.30
2023-01-09T00:16:50.874Z,8.30
2023-01-09T00:19:17.983Z,8.30
2023-01-09T00:21:44.742Z,8.30
2023-01-09T00:24:11.576Z,8.40
2023-01-09T00:26:38.376Z,8.30
2023-01-09T00:29:05.272Z,8.30
2023-01-09T00:31:32.080Z,8.30
2023-01-09T00:34:00.215Z,8.20
2023-01-09T00:36:27.416Z,8.10
2023-01-09T00:38:54.453Z,8.10
2023-01-09T00:41:27.642Z,8.10
2023-01-09T00:44:02.133Z,8.00
2023-01-09T00:46:35.834Z,8.00
2023-01-09T00:49:05.581Z,8.00
2023-01-09T00:51:32.308Z,8.00
2023-01-09T00:53:59.831Z,8.00
2023-01-09T00:56:26.759Z,8.00
2023-01-09T00:58:54.445Z,8.10
2023-01-09T01:01:21.677Z,8.10
2023-01-09T01:03:48.653Z,8.00
2023-01-09T01:06:33.872Z,8.10
2023-01-09T01:09:00.678Z,8.10
2023-01-09T01:11:27.481Z,8.10
2023-01-09T01:13:54.471Z,8.10
2023-01-09T01:16:21.449Z,8.20
2023-01-09T01:18:48.789Z,8.20
2023-01-09T01:21:16.056Z,8.30
2023-01-09T01:23:43.187Z,8.20
2023-01-09T01:26:13.715Z,8.20
2023-01-09T01:28:41.331Z,8.10
2023-01-09T01:31:08.280Z,8.10
2023-01-09T01:33:35.358Z,8.00
2023-01-09T01:36:08.084Z,8.00
2023-01-09T01:38:36.204Z,8.00
2023-01-09T01:41:03.953Z,7.90
2023-01-09T01:43:55.572Z,7.80
2023-01-09T01:46:22.954Z,7.80
2023-01-09T01:48:56.940Z,7.70
2023-01-09T01:51:27.505Z,7.60
2023-01-09T01:53:58.765Z,7.60
2023-01-09T01:56:35.435Z,7.60
2023-01-09T01:59:09.907Z,7.50
2023-01-09T02:01:41.261Z,7.50
2023-01-09T02:04:08.695Z,7.50
2023-01-09T02:06:36.114Z,7.50
2023-01-09T02:09:05.902Z,7.50
2023-01-09T02:11:33.454Z,7.40
2023-01-09T02:14:01.699Z,7.40
2023-01-09T02:16:49.685Z,7.40
2023-01-09T02:19:54.698Z,7.30
2023-01-09T02:22:33.162Z,7.30
2023-01-09T02:25:21.752Z,7.30
2023-01-09T02:28:16.959Z,7.30
2023-01-09T02:31:02.428Z,7.30
2023-01-09T02:33:39.906Z,7.20
2023-01-09T02:36:19.056Z,7.20
2023-01-09T02:39:23.669Z,7.20
2023-01-09T02:41:57.538Z,7.20
2023-01-09T02:44:29.803Z,7.20
2023-01-09T02:47:08.809Z,7.20
2023-01-09T02:49:38.583Z,7.10
2023-01-09T02:52:42.576Z,7.10
2023-01-09T02:55:37.362Z,7.10
2023-01-09T02:58:16.177Z,7.00
2023-01-09T03:00:57.595Z,7.00
2023-01-09T03:03:44.267Z,7.00
2023-01-09T03:06:40.222Z,7.00
2023-01-09T03:09:12.793Z,7.00
2023-01-09T03:11:46.706Z,7.00
2023-01-09T03:14:17.783Z,6.90
2023-01-09T03:16:48.449Z,6.90
2023-01-09T03:19:19.251Z,6.90
2023-01-09T03:21:47.857Z,6.90
2023-01-09T03:24:14.786Z,6.90
2023-01-09T03:26:42.169Z,6.90
2023-01-09T03:29:10.386Z,6.90
2023-01-09T03:31:37.272Z,6.90
2023-01-09T03:34:04.198Z,6.90
2023-01-09T03:36:31.580Z,6.90
2023-01-09T03:38:58.389Z,6.90
2023-01-09T03:41:25.407Z,6.90
2023-01-09T03:43:52.166Z,6.90
2023-01-09T03:46:19.021Z,6.90
2023-01-09T03:48:45.941Z,6.90
2023-01-09T03:51:12.789Z,6.80
2023-01-09T03:53:39.691Z,6.90
2023-01-09T03:56:06.896Z,6.90
2023-01-09T03:58:33.728Z,6.90
2023-01-09T04:01:02.974Z,6.90
2023-01-09T04:03:29.980Z,6.90
2023-01-09T04:05:57.228Z,6.90
2023-01-09T04:08:24.091Z,6.90
2023-01-09T04:10:51.573Z,6.90
2023-01-09T04:13:19.217Z,6.90
2023-01-09T04:15:46.056Z,6.90
2023-01-09T04:18:13.281Z,6.90
2023-01-09T04:20:40.575Z,6.90
2023-01-09T04:23:07.897Z,7.00
2023-01-09T04:25:35.176Z,6.90
2023-01-09T04:28:01.890Z,7.00
2023-01-09T04:30:28.658Z,6.90
2023-01-09T04:32:55.516Z,6.90
2023-01-09T04:35:22.635Z,6.90
2023-01-09T04:37:49.615Z,6.90
2023-01-09T04:40:16.588Z,6.90
2023-01-09T04:42:43.427Z,6.90
2023-01-09T04:45:12.071Z,6.90
2023-01-09T04:47:39.018Z,6.90
2023-01-09T04:50:06.208Z,6.90
2023-01-09T04:52:33.231Z,6.90
2023-01-09T04:55:00.157Z,6.90
2023-01-09T04:57:27.116Z,6.90
2023-01-09T04:59:54.385Z,6.80
2023-01-09T05:02:21.407Z,6.80
2023-01-09T05:04:48.272Z,6.80
2023-01-09T05:07:15.359Z,6.80
2023-01-09T05:09:42.974Z,6.80
2023-01-09T05:12:09.806Z,6.80
2023-01-09T05:14:36.694Z,6.80
2023-01-09T05:17:03.733Z,6.80
2023-01-09T05:19:30.771Z,6.80
2023-01-09T05:21:57.612Z,6.80
2023-01-09T05:24:24.398Z,6.70
2023-01-09T05:26:51.316Z,6.70
2023-01-09T05:29:18.168Z,6.70
2023-01-09T05:31:45.050Z,6.70
2023-01-09T05:34:11.920Z,6.70
2023-01-09T05:36:38.756Z,6.70
2023-01-09T05:39:06.606Z,6.60
2023-01-09T05:41:33.672Z,6.70
2023-01-09T05:44:00.532Z,6.70
2023-01-09T05:46:27.372Z,6.60
2023-01-09T05:48:54.311Z,6.70
2023-01-09T05:51:21.143Z,6.60
2023-01-09T05:53:48.173Z,6.60
2023-01-09T05:56:15.337Z,6.60
2023-01-09T05:58:42.441Z,6.60
2023-01-09T06:01:09.335Z,6.70
2023-01-09T06:03:36.218Z,6.70
2023-01-09T06:06:03.298Z,6.70
2023-01-09T06:08:30.114Z,6.70
2023-01-09T06:10:57.107Z,6.70
2023-01-09T06:13:24.123Z,6.60
2023-01-09T06:15:51.114Z,6.60
2023-01-09T06:18:17.950Z,6.50
2023-01-09T06:20:46.083Z,6.40
2023-01-09T06:23:13.697Z,6.50
2023-01-09T06:25:41.065Z,6.50
2023-01-09T06:28:08.223Z,6.50
2023-01-09T06:30:35.131Z,6.50
2023-01-09T06:33:02.169Z,6.40
2023-01-09T06:35:29.138Z,6.40
2023-01-09T06:37:56.040Z,6.30
2023-01-09T06:40:23.013Z,6.20
2023-01-09T06:42:50.198Z,6.30
2023-01-09T06:45:17.096Z,6.40
2023-01-09T06:47:44.174Z,6.40
2023-01-09T06:50:11.681Z,6.40
2023-01-09T06:52:39.606Z,6.50
2023-01-09T06:55:07.536Z,6.40
2023-01-09T06:57:34.334Z,6.40
2023-01-09T07:00:01.178Z,6.40
2023-01-09T07:02:28.264Z,6.40
2023-01-09T07:04:55.410Z,6.40
2023-01-09T07:07:22.621Z,6.40
2023-01-09T07:09:49.801Z,6.40
2023-01-09T07:12:16.995Z,6.50
2023-01-09T07:14:43.874Z,6.40
2023-01-09T07:17:13.480Z,6.40
2023-01-09T07:19:40.538Z,6.40
2023-01-09T07:22:07.785Z,6.40
2023-01-09T07:24:34.610Z,6.40
2023-01-09T07:27:02.053Z,6.40
2023-01-09T07:29:29.025Z,6.40
2023-01-09T07:31:55.824Z,6.40
2023-01-09T07:34:22.780Z,6.40
2023-01-09T07:36:51.281Z,6.40
2023-01-09T07:39:18.425Z,6.50
2023-01-09T07:41:46.097Z,6.50
2023-01-09T07:44:13.961Z,6.60
2023-01-09T07:46:41.114Z,6.60
2023-01-09T07:49:09.258Z,6.50
2023-01-09T07:51:39.102Z,6.50
2023-01-09T07:54:06.159Z,6.50
2023-01-09T07:56:33.007Z,6.60
2023-01-09T07:59:01.700Z,6.60
2023-01-09T08:01:29.315Z,6.60
2023-01-09T08:03:56.278Z,6.50
2023-01-09T08:06:23.179Z,6.60
2023-01-09T08:08:50.247Z,6.60
2023-01-09T08:11:17.177Z,6.60
2023-01-09T08:13:44.188Z,6.60
2023-01-09T08:16:11.145Z,6.60
2023-01-09T08:18:38.123Z,6.60
2023-01-09T08:21:05.275Z,6.50
2023-01-09T08:23:32.498Z,6.60
2023-01-09T08:25:59.457Z,6.60
2023-01-09T08:28:26.510Z,6.60
2023-01-09T08:30:53.329Z,6.50
2023-01-09T08:33:20.197Z,6.50
2023-01-09T08:35:47.082Z,6.50
2023-01-09T08:38:14.286Z,6.50
2023-01-09T08:40:41.133Z,6.50
2023-01-09T08:43:28.654Z,6.40
2023-01-09T08:46:14.175Z,6.50
2023-01-09T08:48:41.042Z,6.50
2023-01-09T08:51:07.886Z,6.50
2023-01-09T08:53:35.367Z,6.40
2023-01-09T08:56:04.280Z,6.50
2023-01-09T08:58:31.753Z,6.50
2023-01-09T09:01:01.318Z,6.50
2023-01-09T09:03:28.588Z,6.60
2023-01-09T09:05:55.563Z,6.60
2023-01-09T09:08:22.584Z,6.60
2023-01-09T09:10:49.627Z,6.60
2023-01-09T09:13:16.596Z,6.60
2023-01-09T09:15:43.580Z,6.70
2023-01-09T09:18:10.810Z,6.70
2023-01-09T09:20:39.492Z,6.70
2023-01-09T09:23:08.505Z,6.80
2023-01-09T09:25:38.574Z,6.90
2023-01-09T09:28:06.514Z,6.90
2023-01-09T09:30:34.041Z,6.90
2023-01-09T09:33:04.758Z,6.90
2023-01-09T09:35:34.400Z,6.80
2023-01-09T09:38:05.187Z,6.70
2023-01-09T09:40:55.838Z,6.70
2023-01-09T09:43:58.750Z,6.80
2023-01-09T09:46:48.745Z,6.90
2023-01-09T09:49:23.911Z,6.90
2023-01-09T09:51:55.610Z,6.90
2023-01-09T09:54:31.732Z,6.90
2023-01-09T09:57:02.514Z,7.00
2023-01-09T09:59:34.417Z,7.00
2023-01-09T10:02:17.204Z,7.10
2023-01-09T10:04:50.822Z,7.20
2023-01-09T10:07:42.276Z,7.20
2023-01-09T10:10:31.536Z,7.20
2023-01-09T10:13:00.515Z,7.40
2023-01-09T10:15:50.057Z,7.50
2023-01-09T10:18:19.986Z,7.50
2023-01-09T10:21:02.794Z,7.50
2023-01-09T10:23:58.692Z,7.60
2023-01-09T10:26:37.741Z,7.60
2023-01-09T10:29:04.952Z,7.70
2023-01-09T10:31:52.932Z,7.80
2023-01-09T10:34:48.315Z,7.80
2023-01-09T10:37:23.832Z,7.80
2023-01-09T10:39:57.849Z,7.80
2023-01-09T10:42:52.993Z,7.80
2023-01-09T10:45:28.994Z,7.90
2023-01-09T10:48:13.246Z,7.90
2023-01-09T10:50:46.027Z,8.00
2023-01-09T10:53:40.167Z,7.90
2023-01-09T10:56:27.536Z,7.90
2023-01-09T10:58:56.203Z,7.90
2023-01-09T11:01:31.400Z,7.90
2023-01-09T11:04:01.297Z,7.80
2023-01-09T11:07:02.507Z,7.80
2023-01-09T11:10:00.110Z,7.80
2023-01-09T11:12:30.482Z,7.90
2023-01-09T11:15:16.051Z,7.90
2023-01-09T11:17:44.391Z,7.90
2023-01-09T11:20:26.551Z,8.00
2023-01-09T11:22:58.730Z,8.00
2023-01-09T11:25:28.531Z,7.90
2023-01-09T11:28:07.104Z,7.90
2023-01-09T11:30:51.152Z,7.80
2023-01-09T11:33:30.916Z,7.80
2023-01-09T11:36:15.353Z,7.80
2023-01-09T11:39:02.953Z,7.80
2023-01-09T11:41:34.805Z,7.80
2023-01-09T11:44:07.067Z,7.70
2023-01-09T11:46:38.155Z,7.70
2023-01-09T11:49:30.402Z,7.70
2023-01-09T11:52:21.668Z,7.70
2023-01-09T11:54:56.727Z,7.70
2023-01-09T11:57:25.076Z,7.80
2023-01-09T11:59:52.446Z,7.80
2023-01-09T12:02:37.978Z,7.80
2023-01-09T12:05:43.687Z,7.80
2023-01-09T12:08:26.084Z,7.80
2023-01-09T12:11:23.514Z,7.90
2023-01-09T12:14:07.029Z,7.90
2023-01-09T12:16:56.225Z,7.90
2023-01-09T12:20:23.051Z,7.90
2023-01-09T12:23:10.446Z,7.90
2023-01-09T12:25:47.539Z,7.80
2023-01-09T12:28:40.125Z,7.90
2023-01-09T12:31:26.041Z,7.80
2023-01-09T12:33:56.685Z,7.80
2023-01-09T12:37:06.743Z,7.70
2023-01-09T12:39:51.979Z,7.60
2023-01-09T12:42:36.689Z,7.60
2023-01-09T12:45:31.306Z,7.60
2023-01-09T12:48:21.761Z,7.60
2023-01-09T12:50:56.283Z,7.70
2023-01-09T12:53:26.923Z,7.80
2023-01-09T12:56:42.779Z,7.80
2023-01-09T12:59:45.917Z,7.80
2023-01-09T13:02:20.969Z,7.80
2023-01-09T13:05:02.201Z,7.70
2023-01-09T13:07:42.813Z,7.70
2023-01-09T13:10:28.562Z,7.60
2023-01-09T13:12:59.783Z,7.70
2023-01-09T13:15:36.616Z,7.70
2023-01-09T13:18:24.915Z,7.70
2023-01-09T13:20:57.824Z,7.70
2023-01-09T13:23:56.399Z,7.80
2023-01-09T13:26:28.826Z,7.80
2023-01-09T13:29:07.359Z,7.80
2023-01-09T13:31:40.680Z,7.70
2023-01-09T13:34:21.461Z,7.80
2023-01-09T13:36:52.646Z,7.70
2023-01-09T13:39:40.944Z,7.70
2023-01-09T13:42:39.249Z,7.70
2023-01-09T13:45:17.236Z,7.70
2023-01-09T13:47:44.983Z,7.70
2023-01-09T13:50:11.913Z,7.70
2023-01-09T13:52:40.318Z,7.70
2023-01-09T13:55:15.933Z,7.70
2023-01-09T13:57:43.648Z,7.60
2023-01-09T14:00:14.577Z,7.70
2023-01-09T14:02:42.852Z,7.70
2023-01-09T14:05:19.322Z,7.70
2023-01-09T14:07:49.815Z,7.70
2023-01-09T14:10:33.552Z,7.80
2023-01-09T14:13:07.522Z,7.70
2023-01-09T14:15:39.672Z,7.70
2023-01-09T14:18:18.635Z,7.70
2023-01-09T14:20:59.514Z,7.70
2023-01-09T14:26:43.565Z,7.80
2023-01-09T14:29:47.741Z,7.80
2023-01-09T14:32:31.498Z,7.90
2023-01-09T14:36:04.023Z,7.90
2023-01-09T14:38:39.953Z,7.90
2023-01-09T14:41:15.737Z,7.90
2023-01-09T14:43:59.573Z,7.80
2023-01-09T14:46:35.559Z,7.80
2023-01-09T14:49:33.453Z,7.80
2023-01-09T14:52:12.403Z,7.70
2023-01-09T14:54:43.244Z,7.60
2023-01-09T14:57:30.223Z,7.60
2023-01-09T15:00:00.270Z,7.70
2023-01-09T15:02:34.400Z,7.60
2023-01-09T15:05:09.684Z,7.60
2023-01-09T15:07:45.396Z,7.50
2023-01-09T15:10:17.207Z,7.50
2023-01-09T15:12:46.809Z,7.50
2023-01-09T15:15:15.914Z,7.50
2023-01-09T15:17:45.453Z,7.40
2023-01-09T15:20:25.282Z,7.40
2023-01-09T15:22:54.564Z,7.40
2023-01-09T15:25:40.652Z,7.40
2023-01-09T15:28:27.653Z,7.30
2023-01-09T15:31:14.350Z,7.30
2023-01-09T15:33:42.390Z,7.30
2023-01-09T15:36:22.791Z,7.30
2023-01-09T15:38:51.027Z,7.30
2023-01-09T15:41:42.995Z,7.30
2023-01-09T15:44:30.529Z,7.30
2023-01-09T15:46:59.879Z,7.20
2023-01-09T15:49:27.233Z,7.10
2023-01-09T15:51:54.826Z,7.10
2023-01-09T15:54:30.240Z,7.10
2023-01-09T15:57:24.842Z,7.00
2023-01-09T15:59:56.096Z,7.00
2023-01-09T16:02:44.378Z,6.90
2023-01-09T16:05:16.577Z,6.90
2023-01-09T16:07:51.043Z,6.90
2023-01-09T16:10:27.206Z,6.90
2023-01-09T16:12:54.857Z,6.80
2023-01-09T16:15:22.158Z,6.90
2023-01-09T16:18:23.700Z,6.90
2023-01-09T16:21:05.288Z,6.90
2023-01-09T16:23:34.825Z,6.90
2023-01-09T16:26:12.469Z,6.90
2023-01-09T16:28:41.160Z,6.90
2023-01-09T16:31:27.753Z,6.90
2023-01-09T16:34:04.409Z,6.90
2023-01-09T16:36:31.539Z,6.90
2023-01-09T16:39:00.742Z,7.00
2023-01-09T16:41:46.304Z,6.90
2023-01-09T16:44:13.302Z,6.90
2023-01-09T16:46:44.720Z,6.90
2023-01-09T16:49:22.081Z,6.90
2023-01-09T16:51:49.702Z,6.80
2023-01-09T16:54:17.076Z,6.80
2023-01-09T16:56:48.485Z,6.70
2023-01-09T16:59:25.035Z,6.70
2023-01-09T17:01:53.134Z,6.70
2023-01-09T17:04:20.924Z,6.60
2023-01-09T17:06:49.102Z,6.70
2023-01-09T17:09:24.089Z,6.70
2023-01-09T17:11:52.040Z,6.70
2023-01-09T17:14:18.998Z,6.70
2023-01-09T17:16:46.759Z,6.70
2023-01-09T17:19:19.284Z,6.70
2023-01-09T17:21:46.614Z,6.70
2023-01-09T17:24:31.929Z,6.70
2023-01-09T17:27:18.492Z,6.70
2023-01-09T17:29:45.865Z,6.70
2023-01-09T17:32:18.451Z,6.70
2023-01-09T17:34:46.551Z,6.70
2023-01-09T17:37:19.121Z,6.70
2023-01-09T17:39:47.258Z,6.60
2023-01-09T17:42:14.132Z,6.60
2023-01-09T17:44:41.074Z,6.60
2023-01-09T17:47:15.952Z,6.60
2023-01-09T17:49:43.154Z,6.60
2023-01-09T17:52:10.093Z,6.60
2023-01-09T17:54:36.902Z,6.60
2023-01-09T17:57:03.920Z,6.50
2023-01-09T17:59:31.086Z,6.50
2023-01-09T18:01:57.958Z,6.50
2023-01-09T18:04:24.956Z,6.50
2023-01-09T18:06:53.401Z,6.40
2023-01-09T18:09:20.294Z,6.40
2023-01-09T18:11:48.510Z,6.40
2023-01-09T18:14:15.711Z,6.40
2023-01-09T18:16:44.217Z,6.40
2023-01-09T18:19:11.224Z,6.40
2023-01-09T18:21:38.039Z,6.50
2023-01-09T18:24:05.193Z,6.40
2023-01-09T18:26:32.080Z,6.40
2023-01-09T18:29:00.815Z,6.40
2023-01-09T18:31:29.172Z,6.30
2023-01-09T18:33:57.941Z,6.40
2023-01-09T18:36:30.290Z,6.40
2023-01-09T18:39:02.161Z,6.40
2023-01-09T18:41:29.733Z,6.40
2023-01-09T18:43:58.863Z,6.40
2023-01-09T18:46:30.689Z,6.40
2023-01-09T18:49:03.624Z,6.40
2023-01-09T18:51:32.218Z,6.40
2023-01-09T18:53:59.077Z,6.30
2023-01-09T18:56:26.755Z,6.30
2023-01-09T18:58:57.840Z,6.30
2023-01-09T19:01:26.692Z,6.40
2023-01-09T19:03:55.048Z,6.30
2023-01-09T19:06:22.936Z,6.30
2023-01-09T19:08:49.883Z,6.30
2023-01-09T19:11:17.538Z,6.30
2023-01-09T19:13:44.775Z,6.20
2023-01-09T19:16:11.982Z,6.30
2023-01-09T19:18:42.187Z,6.30
2023-01-09T19:21:11.790Z,6.30
2023-01-09T19:23:39.759Z,6.20
2023-01-09T19:26:08.883Z,6.20
2023-01-09T19:28:36.848Z,6.20
2023-01-09T19:31:03.892Z,6.10
2023-01-09T19:33:30.849Z,6.10
2023-01-09T19:35:58.113Z,6.10
2023-01-09T19:38:26.784Z,6.10
2023-01-09T19:40:53.665Z,6.10
2023-01-09T19:43:26.615Z,6.10
2023-01-09T19:45:55.083Z,6.00
2023-01-09T19:48:24.007Z,6.00
2023-01-09T19:50:50.902Z,6.00
2023-01-09T19:53:18.551Z,6.00
2023-01-09T19:55:45.382Z,6.00
2023-01-09T19:58:12.175Z,6.00
2023-01-09T20:00:39.401Z,6.00
2023-01-09T20:03:06.275Z,6.00
2023-01-09T20:05:33.516Z,6.00
2023-01-09T20:08:00.418Z,6.00
2023-01-09T20:10:27.348Z,6.00
2023-01-09T20:12:55.322Z,6.00
2023-01-09T20:15:22.837Z,6.00
2023-01-09T20:17:49.871Z,6.10
2023-01-09T20:20:27.193Z,6.20
2023-01-09T20:22:54.189Z,6.10
2023-01-09T20:25:24.117Z,6.10
2023-01-09T20:27:52.978Z,6.10
2023-01-09T20:30:21.265Z,6.10
2023-01-09T20:32:49.440Z,6.20
2023-01-09T20:35:16.447Z,6.10
2023-01-09T20:37:46.057Z,6.10
2023-01-09T20:40:12.964Z,6.10
2023-01-09T20:42:39.898Z,6.10
2023-01-09T20:45:10.380Z,6.10
2023-01-09T20:47:43.076Z,6.10
2023-01-09T20:50:34.066Z,6.10
2023-01-09T20:53:00.952Z,6.00
2023-01-09T20:55:27.787Z,6.10
2023-01-09T20:57:57.690Z,6.00
2023-01-09T21:00:30.514Z,6.10
2023-01-09T21:03:00.937Z,6.00
2023-01-09T21:05:27.988Z,5.90
2023-01-09T21:08:07.432Z,5.80
2023-01-09T21:10:41.374Z,5.80
2023-01-09T21:13:11.558Z,5.90
2023-01-09T21:15:39.213Z,6.00
2023-01-09T21:18:06.459Z,6.00
2023-01-09T21:20:33.469Z,6.00
2023-01-09T21:23:03.574Z,6.00
2023-01-09T21:25:32.909Z,6.10
2023-01-09T21:28:00.375Z,6.10
2023-01-09T21:30:27.470Z,6.10
2023-01-09T21:32:57.652Z,6.10
2023-01-09T21:35:27.722Z,6.10
2023-01-09T21:37:56.066Z,6.10
2023-01-09T21:40:23.165Z,6.20
2023-01-09T21:43:11.816Z,6.20
2023-01-09T21:46:03.597Z,6.20
2023-01-09T21:48:33.120Z,6.30
2023-01-09T21:51:05.945Z,6.30
2023-01-09T21:53:33.899Z,6.30
2023-01-09T21:56:03.876Z,6.30
2023-01-09T21:58:33.458Z,6.20
2023-01-09T22:01:01.980Z,6.20
2023-01-09T22:03:31.655Z,6.20
2023-01-09T22:06:06.910Z,6.10
2023-01-09T22:08:34.787Z,6.10
2023-01-09T22:11:09.117Z,6.10
2023-01-09T22:13:35.974Z,6.10
2023-01-09T22:16:06.761Z,6.10
2023-01-09T22:18:35.640Z,6.10
2023-01-09T22:21:03.499Z,6.10
2023-01-09T22:23:30.530Z,6.10
2023-01-09T22:25:57.585Z,6.10
2023-01-09T22:28:24.911Z,6.20
2023-01-09T22:30:51.727Z,6.20
2023-01-09T22:33:19.390Z,6.10
2023-01-09T22:35:46.257Z,6.20
2023-01-09T22:38:13.476Z,6.10
2023-01-09T22:40:40.801Z,6.20
2023-01-09T22:43:08.340Z,6.30
2023-01-09T22:45:35.133Z,6.20
2023-01-09T22:48:01.877Z,6.20
2023-01-09T22:50:29.115Z,6.30
2023-01-09T22:52:55.959Z,6.20
2023-01-09T22:55:22.806Z,6.30
2023-01-09T22:57:49.645Z,6.30
2023-01-09T23:00:16.859Z,6.30
2023-01-09T23:02:43.968Z,6.20
2023-01-09T23:05:11.141Z,6.30
2023-01-09T23:07:38.132Z,6.20
2023-01-09T23:10:05.726Z,6.30
2023-01-09T23:12:33.021Z,6.30
2023-01-09T23:15:00.407Z,6.30
2023-01-09T23:17:27.279Z,6.20
2023-01-09T23:19:54.925Z,6.20
2023-01-09T23:22:22.754Z,6.20
2023-01-09T23:24:49.572Z,6.20
2023-01-09T23:27:16.449Z,6.30
2023-01-09T23:29:43.665Z,6.30
2023-01-09T23:32:12.111Z,6.20
2023-01-09T23:34:39.426Z,6.20
2023-01-09T23:37:09.143Z,6.30
2023-01-09T23:39:36.098Z,6.20
2023-01-09T23:42:22.018Z,6.10
2023-01-09T23:44:48.775Z,6.10
2023-01-09T23:47:15.758Z,6.10
2023-01-09T23:49:42.612Z,6.10
2023-01-09T23:52:09.654Z,6.10
2023-01-09T23:54:36.613Z,6.10
2023-01-09T23:57:04.159Z,6.10
2023-01-09T23:59:31.047Z,6.10
